Time;durP1;ratioP1;P1;durP2;ratioP2;P2;SDS_P1;SDS_P2;PMS_P1;PMS_P2;Temp;Humidity;BMP_temperature;BMP_pressure;BME280_temperature;BME280_humidity;BME280_pressure;Samples;Min_cycle;Max_cycle;Signal;HPM_P1;HPM_P2
2022/01/26 00:00:55;;;;;;;87.82;34.13;;;3.10;99.90;;;;;;5039532;28;20036;-67
2022/01/26 00:06:13;;;;;;;98.75;36.20;;;3.20;99.90;;;;;;5053448;28;20444;-67
2022/01/26 00:08:40;;;;;;;105.30;37.33;;;3.20;99.90;;;;;;5055941;28;20441;-67
2022/01/26 00:11:06;;;;;;;98.18;37.58;;;3.20;99.90;;;;;;5055513;28;20041;-67
2022/01/26 00:13:32;;;;;;;96.38;34.92;;;3.20;99.90;;;;;;5055943;28;20048;-67
2022/01/26 00:16:00;;;;;;;102.43;37.03;;;3.20;99.90;;;;;;5038288;28;20444;-67
2022/01/26 00:18:30;;;;;;;89.55;35.50;;;3.20;99.90;;;;;;5055499;28;20045;-67
2022/01/26 00:21:04;;;;;;;114.00;39.25;;;3.10;99.90;;;;;;5038746;28;20044;-67
2022/01/26 00:39:21;;;;;;;100.38;34.53;;;3.10;99.90;;;;;;5075046;28;20044;-67
2022/01/26 00:41:47;;;;;;;112.90;40.65;;;3.10;99.90;;;;;;5058359;28;20123;-67
2022/01/26 00:44:12;;;;;;;114.57;36.95;;;3.10;99.90;;;;;;5058596;28;20044;-67
2022/01/26 00:46:42;;;;;;;117.32;39.95;;;3.10;99.90;;;;;;5074868;28;20515;-67
2022/01/26 00:49:08;;;;;;;115.50;39.75;;;3.10;99.90;;;;;;5058490;28;20050;-67
2022/01/26 00:51:33;;;;;;;120.93;40.28;;;3.10;99.90;;;;;;5074898;28;20043;-67
2022/01/26 00:54:06;;;;;;;106.75;34.60;;;3.00;99.90;;;;;;5058130;28;20407;-67
2022/01/26 00:56:32;;;;;;;109.18;40.17;;;3.00;99.90;;;;;;5075090;28;20125;-67
2022/01/26 00:58:58;;;;;;;98.45;34.58;;;3.00;99.90;;;;;;5074805;28;20044;-67
2022/01/26 01:01:25;;;;;;;111.80;36.90;;;3.00;99.90;;;;;;5074624;28;20105;-67
2022/01/26 01:03:51;;;;;;;96.63;35.47;;;3.00;99.90;;;;;;5074749;28;20491;-67
2022/01/26 01:06:29;;;;;;;117.93;39.05;;;3.00;99.90;;;;;;5055795;28;20040;-67
2022/01/26 01:08:58;;;;;;;97.95;34.75;;;3.00;99.90;;;;;;5074572;28;20510;-67
2022/01/26 01:11:25;;;;;;;99.57;36.22;;;3.00;99.90;;;;;;5074420;28;20047;-67
2022/01/26 01:13:51;;;;;;;97.32;34.55;;;3.00;99.90;;;;;;5057889;28;20047;-67
2022/01/26 01:16:21;;;;;;;96.63;33.72;;;3.00;99.90;;;;;;5074698;28;20067;-67
2022/01/26 01:29:35;;;;;;;102.63;34.70;;;3.00;99.90;;;;;;5074174;28;20043;-67
2022/01/26 01:32:10;;;;;;;100.95;35.78;;;3.00;99.90;;;;;;5057742;28;20127;-67
2022/01/26 01:34:38;;;;;;;103.10;33.30;;;3.00;99.90;;;;;;5074493;28;20092;-67
2022/01/26 01:37:10;;;;;;;102.03;34.75;;;3.00;99.90;;;;;;5055167;28;20051;-67
2022/01/26 01:39:36;;;;;;;102.28;36.08;;;2.90;99.90;;;;;;5057556;28;20040;-67
2022/01/26 01:42:05;;;;;;;100.38;35.08;;;3.00;99.90;;;;;;5074215;28;20448;-67
2022/01/26 01:44:31;;;;;;;100.35;37.22;;;3.00;99.90;;;;;;5074276;28;20036;-67
2022/01/26 01:46:58;;;;;;;101.22;35.72;;;3.00;99.90;;;;;;5073928;28;20439;-67
2022/01/26 01:49:25;;;;;;;92.63;35.25;;;3.00;99.90;;;;;;5074029;28;20048;-67
2022/01/26 01:51:55;;;;;;;107.03;36.65;;;3.00;99.90;;;;;;5057135;28;20036;-67
2022/01/26 01:54:21;;;;;;;;;;;3.00;99.90;;;;;;5074457;28;20048;-67
2022/01/26 01:56:53;;;;;;;98.80;34.83;;;3.00;99.90;;;;;;5057135;28;19916;-67
2022/01/26 01:59:19;;;;;;;91.53;33.50;;;3.00;99.90;;;;;;5073929;28;20047;-67
2022/01/26 02:01:45;;;;;;;93.28;34.70;;;3.00;99.90;;;;;;5057103;28;20040;-68
2022/01/26 02:04:11;;;;;;;88.90;33.40;;;3.00;99.90;;;;;;5073956;28;20044;-67
2022/01/26 02:06:37;;;;;;;86.65;31.80;;;3.00;99.90;;;;;;5071627;28;20044;-67
2022/01/26 02:09:03;;;;;;;79.30;29.95;;;3.10;99.90;;;;;;5073757;28;20044;-67
2022/01/26 02:11:29;;;;;;;80.85;29.98;;;3.10;99.90;;;;;;5073721;28;20102;-67
2022/01/26 02:54:23;;;;;;;59.97;22.05;;;3.10;99.90;;;;;;5057392;28;20059;-67
2022/01/26 02:57:02;;;;;;;62.63;22.52;;;3.10;99.90;;;;;;5056931;28;20037;-67
2022/01/26 03:02:26;;;;;;;66.40;24.60;;;3.10;99.90;;;;;;5056936;28;20052;-67
2022/01/26 03:04:56;;;;;;;65.40;25.52;;;3.00;99.90;;;;;;5057299;28;20373;-67
2022/01/26 03:07:49;;;;;;;65.78;23.88;;;3.00;99.90;;;;;;5054717;28;20047;-67
2022/01/26 03:10:31;;;;;;;58.58;22.98;;;3.00;99.90;;;;;;5056650;28;20098;-67
2022/01/26 03:13:03;;;;;;;60.92;23.48;;;2.90;99.90;;;;;;5057195;28;20178;-67
2022/01/26 03:15:43;;;;;;;60.55;21.92;;;2.90;99.90;;;;;;5057092;28;20041;-67
2022/01/26 03:20:57;;;;;;;72.93;26.77;;;2.90;99.90;;;;;;5056642;28;20619;-67
2022/01/26 03:34:15;;;;;;;58.58;21.45;;;2.90;99.90;;;;;;5076638;28;20047;-67
2022/01/26 03:39:17;;;;;;;57.92;23.15;;;2.90;99.90;;;;;;5076602;28;20401;-67
2022/01/26 03:44:10;;;;;;;60.72;24.27;;;2.90;99.90;;;;;;5076520;28;20044;-67
2022/01/26 03:46:36;;;;;;;77.85;28.85;;;2.90;99.90;;;;;;5076291;28;20541;-67
2022/01/26 03:49:03;;;;;;;66.22;26.48;;;2.90;99.90;;;;;;5076405;28;20036;-67
2022/01/26 03:51:29;;;;;;;68.53;23.90;;;2.80;99.90;;;;;;5075947;28;20083;-67
2022/01/26 03:53:55;;;;;;;69.68;25.80;;;2.80;99.90;;;;;;5059339;28;20075;-67
2022/01/26 03:56:21;;;;;;;70.40;26.98;;;2.90;99.90;;;;;;5059633;28;20036;-67
2022/01/26 03:58:47;;;;;;;70.57;28.38;;;2.90;99.90;;;;;;5076227;28;20132;-67
2022/01/26 04:01:13;;;;;;;66.70;24.95;;;2.90;99.90;;;;;;5059488;28;20039;-67
2022/01/26 04:03:38;;;;;;;70.20;26.45;;;2.90;99.90;;;;;;5075797;28;20489;-67
2022/01/26 04:06:04;;;;;;;59.95;22.58;;;2.90;99.90;;;;;;5056775;28;20101;-67
2022/01/26 04:08:32;;;;;;;67.43;24.70;;;2.90;99.90;;;;;;5059026;28;20109;-67
2022/01/26 04:13:27;;;;;;;58.78;21.95;;;2.90;99.90;;;;;;5075585;28;20074;-67
2022/01/26 04:15:53;;;;;;;65.10;24.42;;;2.90;99.90;;;;;;5075928;28;20040;-67
2022/01/26 04:18:25;;;;;;;63.78;24.60;;;2.90;99.90;;;;;;5075729;28;20059;-67
2022/01/26 04:20:55;;;;;;;51.88;20.90;;;2.90;99.90;;;;;;5075603;28;20050;-67
2022/01/26 04:23:42;;;;;;;61.97;24.35;;;2.90;99.90;;;;;;5075378;28;20056;-67
2022/01/26 04:26:09;;;;;;;56.95;22.52;;;2.80;99.90;;;;;;5075438;28;20522;-67
2022/01/26 04:28:42;;;;;;;56.38;23.35;;;2.90;99.90;;;;;;5075594;28;20040;-67
2022/01/26 04:31:09;;;;;;;49.10;18.45;;;2.80;99.90;;;;;;5075266;28;20055;-67
2022/01/26 04:33:36;;;;;;;60.92;23.58;;;2.80;99.90;;;;;;5075241;28;20515;-67
2022/01/26 04:36:05;;;;;;;53.55;19.55;;;2.80;99.90;;;;;;5073163;28;20039;-67
2022/01/26 04:38:46;;;;;;;53.97;18.90;;;2.80;99.90;;;;;;5075077;28;20053;-67
2022/01/26 04:44:03;;;;;;;60.28;22.08;;;2.80;99.90;;;;;;5074944;28;20044;-67
2022/01/26 04:46:29;;;;;;;55.33;19.85;;;2.80;99.90;;;;;;5058701;28;20089;-67
2022/01/26 04:48:54;;;;;;;50.10;19.42;;;2.70;99.90;;;;;;5075168;28;20048;-67
2022/01/26 04:51:21;;;;;;;60.63;21.08;;;2.80;99.90;;;;;;5058400;28;20040;-67
2022/01/26 04:53:46;;;;;;;51.40;17.90;;;2.80;99.90;;;;;;5075065;28;20369;-67
2022/01/26 04:56:14;;;;;;;54.90;20.35;;;2.80;99.90;;;;;;5075100;28;20028;-67
2022/01/26 04:58:41;;;;;;;45.22;19.50;;;2.70;99.90;;;;;;5058241;28;20480;-67
2022/01/26 05:01:06;;;;;;;58.20;22.77;;;2.70;99.90;;;;;;5074866;28;20054;-67
2022/01/26 05:03:32;;;;;;;60.97;22.35;;;2.70;99.90;;;;;;5057509;28;20065;-67
2022/01/26 05:05:58;;;;;;;57.10;21.27;;;2.70;99.90;;;;;;5072573;28;20047;-67
2022/01/26 05:08:24;;;;;;;60.63;20.58;;;2.70;99.90;;;;;;5074509;28;20475;-67
2022/01/26 05:10:50;;;;;;;43.25;16.48;;;2.70;99.90;;;;;;5074658;28;20040;-67
2022/01/26 05:13:16;;;;;;;56.95;18.90;;;2.70;99.90;;;;;;5074632;28;20036;-67
2022/01/26 05:15:43;;;;;;;67.88;23.52;;;2.70;99.90;;;;;;5074538;28;20050;-67
2022/01/26 05:18:10;;;;;;;62.63;21.77;;;2.70;99.90;;;;;;5058038;28;20492;-67
2022/01/26 05:20:36;;;;;;;63.17;22.65;;;2.70;99.90;;;;;;5057866;28;20047;-67
2022/01/26 05:23:02;;;;;;;58.58;18.70;;;2.70;99.90;;;;;;5074165;28;20056;-67
2022/01/26 05:25:28;;;;;;;66.25;25.15;;;2.70;99.90;;;;;;5057616;28;20105;-67
2022/01/26 05:27:53;;;;;;;60.00;23.85;;;2.70;99.90;;;;;;5057896;28;20048;-67
2022/01/26 05:30:20;;;;;;;67.50;24.40;;;2.70;99.90;;;;;;5057444;28;20036;-67
2022/01/26 05:32:46;;;;;;;57.20;20.42;;;2.70;99.90;;;;;;5074247;28;20500;-67
2022/01/26 05:35:12;;;;;;;47.35;18.25;;;2.70;99.90;;;;;;5074209;28;20042;-67
2022/01/26 05:37:39;;;;;;;58.05;23.35;;;2.70;99.90;;;;;;5071581;28;20036;-67
2022/01/26 05:40:06;;;;;;;61.03;23.13;;;2.70;99.90;;;;;;5074177;28;20076;-67
2022/01/26 05:42:34;;;;;;;54.67;20.52;;;2.70;99.90;;;;;;5074413;28;20471;-67
2022/01/26 05:45:04;;;;;;;61.70;24.88;;;2.70;99.90;;;;;;5074270;28;20079;-67
2022/01/26 05:47:32;;;;;;;40.08;16.58;;;2.70;99.90;;;;;;5057349;28;20044;-67
2022/01/26 05:49:58;;;;;;;61.17;23.02;;;2.80;99.90;;;;;;5073849;28;20507;-67
2022/01/26 05:52:24;;;;;;;57.40;25.33;;;2.80;99.90;;;;;;5074205;28;20214;-67
2022/01/26 05:54:50;;;;;;;67.90;24.55;;;2.70;99.90;;;;;;5057229;28;20036;-67
2022/01/26 05:57:16;;;;;;;69.07;27.02;;;2.70;99.90;;;;;;5057456;28;20044;-67
2022/01/26 05:59:42;;;;;;;67.97;24.27;;;2.70;99.90;;;;;;5073880;28;20036;-67
2022/01/26 06:02:08;;;;;;;68.63;25.70;;;2.70;99.90;;;;;;5074117;28;20044;-67
2022/01/26 06:04:33;;;;;;;69.72;27.85;;;2.70;99.90;;;;;;5073758;28;20044;-67
2022/01/26 06:06:59;;;;;;;62.65;24.20;;;2.80;99.90;;;;;;5071328;28;20043;-67
2022/01/26 06:09:25;;;;;;;65.97;25.00;;;2.70;99.90;;;;;;5074013;28;20048;-67
2022/01/26 06:11:51;;;;;;;63.00;24.67;;;2.80;99.90;;;;;;5073784;28;20127;-67
2022/01/26 06:14:17;;;;;;;62.70;24.38;;;2.70;99.90;;;;;;5058416;28;20481;-67
2022/01/26 06:16:43;;;;;;;60.55;23.65;;;2.70;99.90;;;;;;5077988;28;20036;-67
2022/01/26 06:19:09;;;;;;;70.40;26.85;;;2.80;99.90;;;;;;5078124;28;20032;-67
2022/01/26 06:21:35;;;;;;;68.82;27.17;;;2.80;99.90;;;;;;5060875;28;20405;-67
2022/01/26 06:24:00;;;;;;;72.43;29.48;;;2.80;99.90;;;;;;5078112;28;20101;-67
2022/01/26 06:26:26;;;;;;;70.40;29.10;;;2.80;99.90;;;;;;5078135;28;20511;-67
2022/01/26 06:28:52;;;;;;;69.00;28.00;;;2.80;99.90;;;;;;5078030;28;20122;-67
2022/01/26 06:31:19;;;;;;;69.63;27.48;;;2.80;99.90;;;;;;5077420;28;20480;-67
2022/01/26 06:33:47;;;;;;;58.95;25.88;;;2.80;99.90;;;;;;5077630;28;20101;-67
2022/01/26 06:36:15;;;;;;;73.07;29.50;;;2.90;99.90;;;;;;5058347;28;20035;-67
2022/01/26 06:38:43;;;;;;;70.63;28.33;;;2.90;99.90;;;;;;5060342;28;20079;-67
2022/01/26 06:41:10;;;;;;;75.32;30.77;;;2.90;99.90;;;;;;5057716;28;20043;-67
2022/01/26 06:43:46;;;;;;;66.13;29.38;;;2.90;99.90;;;;;;5057630;28;20101;-67
2022/01/26 06:46:19;;;;;;;72.32;29.52;;;2.90;99.90;;;;;;5057297;28;20519;-67
2022/01/26 06:51:29;;;;;;;69.70;31.48;;;2.90;99.90;;;;;;5057161;28;20135;-67
2022/01/26 06:53:55;;;;;;;81.32;32.15;;;2.90;99.90;;;;;;5040547;28;20128;-67
2022/01/26 06:56:21;;;;;;;79.40;32.92;;;3.00;99.90;;;;;;5040757;28;20086;-69
2022/01/26 06:58:47;;;;;;;78.55;33.65;;;2.90;99.90;;;;;;5057359;28;20428;-67
2022/01/26 07:01:13;;;;;;;77.00;34.08;;;3.00;99.90;;;;;;5040554;28;20489;-67
2022/01/26 07:03:39;;;;;;;81.68;36.50;;;3.00;99.90;;;;;;5057133;28;20051;-67
2022/01/26 07:06:05;;;;;;;93.25;37.72;;;3.00;99.90;;;;;;5054392;28;20044;-67
2022/01/26 07:08:32;;;;;;;79.78;35.42;;;3.00;99.90;;;;;;5069299;28;20067;-67
2022/01/26 07:10:59;;;;;;;89.25;36.20;;;3.10;99.90;;;;;;5074126;28;20434;-67
2022/01/26 07:13:26;;;;;;;87.35;35.45;;;3.10;99.90;;;;;;5074175;28;20127;-67
2022/01/26 07:23:46;;;;;;;91.95;37.95;;;3.10;99.90;;;;;;5093600;28;20102;-67
2022/01/26 07:26:12;;;;;;;102.07;40.58;;;3.10;99.90;;;;;;5092888;28;20056;-67
2022/01/26 07:28:39;;;;;;;96.60;41.88;;;3.10;99.90;;;;;;5077107;28;20074;-67
2022/01/26 07:31:06;;;;;;;96.05;39.67;;;3.10;99.90;;;;;;5093308;28;20040;-67
2022/01/26 07:33:33;;;;;;;101.28;42.97;;;3.10;99.90;;;;;;5093827;28;20044;-67
2022/01/26 07:35:59;;;;;;;97.65;42.45;;;3.20;99.90;;;;;;5091106;28;20469;-67
2022/01/26 07:38:26;;;;;;;103.20;44.60;;;3.20;99.90;;;;;;5081439;28;20040;-67
2022/01/26 07:40:53;;;;;;;103.47;43.60;;;3.20;99.90;;;;;;5076330;28;20454;-67
2022/01/26 07:43:19;;;;;;;111.18;45.25;;;3.20;99.90;;;;;;5073795;28;20547;-67
2022/01/26 07:45:44;;;;;;;109.43;44.90;;;3.20;99.90;;;;;;5059246;28;20078;-67
2022/01/26 07:48:10;;;;;;;130.95;50.47;;;3.20;99.90;;;;;;5076082;28;20166;-67
2022/01/26 07:50:36;;;;;;;129.57;53.33;;;3.20;99.90;;;;;;5059424;28;20043;-67
2022/01/26 07:53:03;;;;;;;123.03;50.42;;;3.20;99.90;;;;;;5076080;28;20098;-67
2022/01/26 07:55:29;;;;;;;120.10;48.45;;;3.30;99.90;;;;;;5075863;28;20036;-67
2022/01/26 07:57:56;;;;;;;137.55;52.80;;;3.30;99.90;;;;;;5075910;28;20069;-67
2022/01/26 08:00:23;;;;;;;139.35;50.85;;;3.40;99.90;;;;;;5076079;28;20066;-67
2022/01/26 08:02:50;;;;;;;122.38;51.45;;;3.40;99.90;;;;;;5076193;28;20135;-68
2022/01/26 08:05:16;;;;;;;129.60;49.38;;;3.40;99.90;;;;;;5076057;28;20047;-67
2022/01/26 08:07:43;;;;;;;122.20;49.13;;;3.50;99.90;;;;;;5056813;28;20048;-67
2022/01/26 08:10:10;;;;;;;125.32;52.47;;;3.50;99.90;;;;;;5075643;28;20040;-67
2022/01/26 08:12:38;;;;;;;118.40;49.03;;;3.50;99.90;;;;;;5075763;28;20385;-67
2022/01/26 08:15:06;;;;;;;115.70;49.00;;;3.60;99.90;;;;;;5059226;28;20044;-67
2022/01/26 08:17:32;;;;;;;115.28;49.80;;;3.60;99.90;;;;;;5059051;28;20028;-67
2022/01/26 08:19:59;;;;;;;115.65;47.13;;;3.60;99.90;;;;;;5075692;28;20043;-67
2022/01/26 08:22:27;;;;;;;123.55;49.40;;;3.60;99.90;;;;;;5072075;28;20127;-67
2022/01/26 08:24:53;;;;;;;118.65;51.45;;;3.60;99.90;;;;;;5072064;28;20721;-67
2022/01/26 08:27:21;;;;;;;110.03;45.53;;;3.70;99.90;;;;;;5072230;28;20032;-67
2022/01/26 08:29:51;;;;;;;122.53;50.30;;;3.70;99.90;;;;;;5055266;28;20101;-67
2022/01/26 08:32:17;;;;;;;115.78;52.05;;;3.70;99.90;;;;;;5072118;28;20373;-67
2022/01/26 08:34:43;;;;;;;109.88;47.80;;;3.70;99.90;;;;;;5072205;28;20051;-67
2022/01/26 08:37:09;;;;;;;102.90;43.15;;;3.80;99.90;;;;;;5063578;28;20056;-67
2022/01/26 08:39:36;;;;;;;92.72;41.70;;;3.80;99.90;;;;;;5075078;28;20488;-67
2022/01/26 08:42:05;;;;;;;84.38;40.03;;;3.80;99.90;;;;;;5075207;28;20078;-67
2022/01/26 08:44:32;;;;;;;95.10;40.67;;;3.80;99.90;;;;;;5058561;28;20032;-67
2022/01/26 08:46:58;;;;;;;77.85;36.38;;;3.90;99.90;;;;;;5058491;28;20097;-67
2022/01/26 08:49:25;;;;;;;78.20;35.60;;;3.90;99.90;;;;;;5075203;28;20083;-67
2022/01/26 08:51:51;;;;;;;79.38;37.60;;;3.90;99.90;;;;;;5058163;28;20071;-67
2022/01/26 08:54:20;;;;;;;73.35;33.67;;;3.90;99.90;;;;;;5058155;28;20040;-67
2022/01/26 08:56:55;;;;;;;78.07;35.13;;;3.90;99.90;;;;;;5074941;28;20050;-67
2022/01/26 08:59:23;;;;;;;69.00;31.30;;;4.00;99.90;;;;;;5058158;28;20040;-67
2022/01/26 09:01:50;;;;;;;70.10;34.13;;;3.90;99.90;;;;;;5074464;28;20047;-67
2022/01/26 09:04:16;;;;;;;72.32;34.38;;;4.00;99.90;;;;;;5074590;28;20097;-67
2022/01/26 09:06:56;;;;;;;67.90;32.78;;;4.00;99.90;;;;;;5055644;28;20112;-67
2022/01/26 09:09:32;;;;;;;73.68;34.38;;;4.00;99.90;;;;;;5074621;28;20553;-67
2022/01/26 09:12:00;;;;;;;73.93;34.88;;;4.00;99.90;;;;;;5074282;28;20079;-67
2022/01/26 09:14:28;;;;;;;77.00;34.03;;;4.00;99.90;;;;;;5057704;28;20047;-67
2022/01/26 09:16:55;;;;;;;72.72;33.80;;;4.00;99.90;;;;;;5057971;28;20059;-67
2022/01/26 09:19:28;;;;;;;76.18;35.08;;;4.00;99.90;;;;;;5074643;28;20181;-68
2022/01/26 09:22:03;;;;;;;78.00;37.78;;;4.10;99.90;;;;;;5074195;28;20062;-67
2022/01/26 09:24:31;;;;;;;81.13;35.95;;;4.00;99.90;;;;;;5057666;28;20488;-67
2022/01/26 09:26:58;;;;;;;84.25;37.40;;;4.10;99.90;;;;;;5057572;28;20538;-68
2022/01/26 09:29:24;;;;;;;84.15;37.75;;;4.10;99.90;;;;;;5074499;28;20036;-68
2022/01/26 09:31:50;;;;;;;76.95;37.47;;;4.10;99.90;;;;;;5060126;28;20044;-68
2022/01/26 09:34:19;;;;;;;80.35;36.60;;;4.10;99.90;;;;;;5049311;28;20045;-68
2022/01/26 09:36:46;;;;;;;82.13;36.08;;;4.10;99.90;;;;;;5068113;28;20519;-68
2022/01/26 09:39:13;;;;;;;81.90;34.85;;;4.10;99.90;;;;;;5054025;28;20044;-67
2022/01/26 09:41:40;;;;;;;96.60;47.92;;;4.10;99.90;;;;;;5054124;28;20076;-67
2022/01/26 09:44:07;;;;;;;82.43;41.58;;;4.20;99.90;;;;;;5054107;28;20435;-68
2022/01/26 09:46:34;;;;;;;80.75;38.22;;;4.10;99.90;;;;;;5037449;28;20075;-67
2022/01/26 09:49:01;;;;;;;76.97;35.25;;;4.10;99.90;;;;;;5053878;28;20044;-67
2022/01/26 09:51:27;;;;;;;74.00;35.42;;;4.20;99.90;;;;;;5037218;28;20127;-67
2022/01/26 09:54:08;;;;;;;75.85;33.90;;;4.20;99.90;;;;;;5053873;28;20040;-68
2022/01/26 09:56:34;;;;;;;81.32;35.28;;;4.20;99.90;;;;;;5053652;28;20133;-68
2022/01/26 09:59:00;;;;;;;78.78;34.70;;;4.20;99.90;;;;;;5037152;28;20044;-67
2022/01/26 10:01:26;;;;;;;80.72;36.85;;;4.20;99.90;;;;;;5053642;28;20040;-66
2022/01/26 10:03:52;;;;;;;80.70;35.33;;;4.20;99.90;;;;;;5037662;28;20044;-67
2022/01/26 10:06:28;;;;;;;77.07;33.50;;;4.20;99.90;;;;;;5051664;28;20172;-67
2022/01/26 10:19:26;;;;;;;76.68;33.80;;;4.30;99.90;;;;;;5053721;28;20051;-66
2022/01/26 10:21:52;;;;;;;80.95;33.60;;;4.30;99.90;;;;;;5053814;28;20556;-66
2022/01/26 10:24:24;;;;;;;78.95;34.20;;;4.30;99.90;;;;;;5070431;28;20049;-68
2022/01/26 10:26:56;;;;;;;87.13;35.97;;;4.30;99.90;;;;;;5070030;28;20045;-66
2022/01/26 10:29:23;;;;;;;85.45;37.42;;;4.30;99.90;;;;;;5070235;28;20044;-66
2022/01/26 10:31:49;;;;;;;79.97;34.60;;;4.30;99.90;;;;;;5070027;28;20082;-66
2022/01/26 10:34:17;;;;;;;82.03;35.10;;;4.30;99.90;;;;;;5070097;28;20080;-66
2022/01/26 10:36:48;;;;;;;72.70;31.58;;;4.30;99.90;;;;;;5067639;28;20101;-66
2022/01/26 10:39:24;;;;;;;88.43;36.78;;;4.30;99.90;;;;;;5070074;28;20238;-66
2022/01/26 10:41:55;;;;;;;81.97;37.10;;;4.30;99.90;;;;;;5070424;28;20428;-66
2022/01/26 10:44:42;;;;;;;84.85;34.45;;;4.40;99.90;;;;;;5069894;28;20044;-66
2022/01/26 10:47:09;;;;;;;74.53;33.28;;;4.30;99.90;;;;;;5053240;28;20072;-66
2022/01/26 10:52:28;;;;;;;73.28;32.83;;;4.40;99.90;;;;;;5069945;28;20048;-66
2022/01/26 10:54:54;;;;;;;79.80;35.25;;;4.40;99.90;;;;;;5069850;28;20048;-66
2022/01/26 10:57:20;;;;;;;73.15;33.42;;;4.40;99.90;;;;;;5053478;28;20036;-66
2022/01/26 10:59:49;;;;;;;66.18;30.98;;;4.40;99.90;;;;;;5070441;28;20473;-66
2022/01/26 11:02:21;;;;;;;72.72;33.38;;;4.40;99.90;;;;;;5056887;28;20078;-66
2022/01/26 11:04:47;;;;;;;71.95;34.03;;;4.40;99.90;;;;;;5073808;28;20076;-66
2022/01/26 11:07:15;;;;;;;74.45;36.20;;;4.50;99.90;;;;;;5071335;28;20055;-66
2022/01/26 11:09:45;;;;;;;74.18;36.00;;;4.50;99.90;;;;;;5073401;28;20078;-66
2022/01/26 11:12:12;;;;;;;76.87;34.87;;;4.50;99.90;;;;;;5073525;28;20069;-66
2022/01/26 11:14:38;;;;;;;69.15;32.17;;;4.50;99.90;;;;;;5056577;28;20044;-66
2022/01/26 11:17:04;;;;;;;64.45;31.25;;;4.50;99.90;;;;;;5073292;28;20071;-66
2022/01/26 11:19:40;;;;;;;63.67;30.13;;;4.50;99.90;;;;;;5073342;28;20044;-66
2022/01/26 11:22:08;;;;;;;78.72;32.17;;;4.60;99.90;;;;;;5059993;28;20075;-66
2022/01/26 11:24:45;;;;;;;64.75;29.83;;;4.60;99.90;;;;;;5076555;28;20056;-66
2022/01/26 11:27:13;;;;;;;68.18;32.20;;;4.60;99.90;;;;;;5076479;28;20044;-66
2022/01/26 11:29:43;;;;;;;74.35;33.08;;;4.50;99.90;;;;;;5076438;28;20113;-66
2022/01/26 11:32:18;;;;;;;69.05;31.40;;;4.60;99.90;;;;;;5076448;28;20036;-66
2022/01/26 11:34:47;;;;;;;69.60;33.47;;;4.60;99.90;;;;;;5076347;28;20595;-66
2022/01/26 11:37:15;;;;;;;69.45;33.20;;;4.50;99.90;;;;;;5073850;28;20032;-66
2022/01/26 11:45:03;;;;;;;71.55;31.85;;;4.60;99.90;;;;;;5076516;28;20047;-66
2022/01/26 11:45:21;;;;;;;71.03;31.38;;;4.60;99.90;;;;;;5076142;28;20529;-66
2022/01/26 11:47:59;;;;;;;76.05;32.15;;;4.60;99.90;;;;;;5059893;28;20396;-66
2022/01/26 11:50:26;;;;;;;75.65;33.40;;;4.60;99.90;;;;;;5076213;28;20123;-66
2022/01/26 11:53:23;;;;;;;70.18;30.38;;;4.70;99.90;;;;;;5076278;28;20455;-66
2022/01/26 11:55:51;;;;;;;73.43;31.95;;;4.70;99.90;;;;;;5075227;28;20488;-66
2022/01/26 11:58:37;;;;;;;69.65;30.60;;;4.70;99.90;;;;;;5059245;28;20062;-66
2022/01/26 12:01:20;;;;;;;66.53;33.05;;;4.70;99.90;;;;;;5075889;28;20048;-66
2022/01/26 12:04:02;;;;;;;62.47;30.38;;;4.60;99.90;;;;;;5075741;28;20044;-66
2022/01/26 12:06:40;;;;;;;67.82;32.20;;;4.70;99.90;;;;;;5056813;28;20391;-66
2022/01/26 12:09:07;;;;;;;66.78;29.40;;;4.70;99.90;;;;;;5075696;28;20044;-66
2022/01/26 12:11:34;;;;;;;68.10;31.17;;;4.60;99.90;;;;;;5075848;28;20044;-66
2022/01/26 12:14:05;;;;;;;62.88;29.48;;;4.70;99.90;;;;;;5059214;28;20046;-66
2022/01/26 12:16:39;;;;;;;63.30;30.42;;;4.60;99.90;;;;;;5075732;28;20054;-66
2022/01/26 12:19:27;;;;;;;61.85;29.67;;;4.70;99.90;;;;;;5075904;28;20036;-66
2022/01/26 12:34:05;;;;;;;62.00;28.10;;;4.80;99.90;;;;;;5071946;28;20131;-66
2022/01/26 12:41:10;;;;;;;64.18;28.33;;;4.80;99.90;;;;;;5035076;28;20044;-66
2022/01/26 12:42:12;;;;;;;67.20;30.00;;;4.80;99.90;;;;;;5035353;28;20033;-66
2022/01/26 12:44:38;;;;;;;66.45;29.75;;;4.80;99.90;;;;;;5035156;28;20098;-66
2022/01/26 12:47:04;;;;;;;68.68;30.70;;;4.70;99.90;;;;;;5035387;28;20049;-66
2022/01/26 12:49:31;;;;;;;71.15;30.73;;;4.70;99.90;;;;;;5035271;28;20102;-66
2022/01/26 12:51:57;;;;;;;70.03;31.63;;;4.70;99.90;;;;;;5035183;28;20041;-66
2022/01/26 12:54:24;;;;;;;81.85;34.78;;;4.70;99.90;;;;;;5018461;28;20107;-66
2022/01/26 12:56:50;;;;;;;72.40;33.10;;;4.70;99.90;;;;;;5018868;28;20079;-67
2022/01/26 12:59:21;;;;;;;75.25;31.77;;;4.70;99.90;;;;;;5072306;28;20075;-66
2022/01/26 13:01:52;;;;;;;72.15;32.60;;;4.70;99.90;;;;;;5055401;28;20048;-66
2022/01/26 13:04:18;;;;;;;76.45;34.05;;;4.70;99.90;;;;;;5071987;28;20123;-66
2022/01/26 13:06:51;;;;;;;88.15;37.25;;;4.70;99.90;;;;;;5053424;28;20218;-67
2022/01/26 13:09:21;;;;;;;72.90;32.05;;;4.70;99.90;;;;;;5071848;28;20508;-66
2022/01/26 13:11:50;;;;;;;74.10;34.17;;;4.80;99.90;;;;;;5071839;28;20048;-66
2022/01/26 13:14:34;;;;;;;64.22;31.10;;;4.90;99.90;;;;;;5072077;28;20040;-66
2022/01/26 13:25:39;;;;;;;71.00;31.20;;;5.10;99.90;;;;;;5091743;28;20055;-66
2022/01/26 13:28:20;;;;;;;69.03;29.75;;;5.10;99.90;;;;;;5091228;28;20307;-66
2022/01/26 13:36:41;;;;;;;53.95;23.90;;;5.20;99.90;;;;;;5088881;28;20093;-66
2022/01/26 13:39:28;;;;;;;56.65;25.75;;;5.20;99.90;;;;;;5054191;28;20165;-66
2022/01/26 13:58:27;;;;;;;58.70;27.40;;;5.40;99.90;;;;;;5013626;28;20049;-66
2022/01/26 14:01:03;;;;;;;63.33;28.90;;;5.40;99.90;;;;;;5068920;28;20487;-67
2022/01/26 14:03:46;;;;;;;53.83;25.95;;;5.40;99.90;;;;;;5089278;28;20047;-66
2022/01/26 14:06:11;;;;;;;62.65;30.55;;;5.40;99.90;;;;;;5089066;28;20121;-67
2022/01/26 14:08:38;;;;;;;60.67;29.08;;;5.40;99.90;;;;;;5091522;28;20036;-67
2022/01/26 14:11:04;;;;;;;55.80;27.13;;;5.50;99.90;;;;;;5090895;28;20044;-67
2022/01/26 14:13:30;;;;;;;62.28;29.70;;;5.50;99.90;;;;;;5091193;28;20055;-66
2022/01/26 14:15:58;;;;;;;62.88;31.05;;;5.50;99.90;;;;;;5090754;28;20040;-66
2022/01/26 14:18:42;;;;;;;70.80;31.85;;;5.50;99.90;;;;;;5090652;28;20127;-66
2022/01/26 14:21:23;;;;;;;66.82;30.45;;;5.50;99.90;;;;;;5090736;28;20040;-66
2022/01/26 14:26:19;;;;;;;62.72;29.13;;;5.50;99.90;;;;;;5090542;28;20567;-66
2022/01/26 14:28:48;;;;;;;63.17;28.10;;;5.50;99.90;;;;;;5073956;28;20040;-66
2022/01/26 14:55:30;;;;;;;52.22;25.92;;;5.50;99.90;;;;;;5077291;28;20053;-67
2022/01/26 15:50:53;;;;;;;51.38;22.70;;;5.60;99.90;;;;;;5036125;28;20040;-66
2022/01/26 15:57:17;;;;;;;48.45;22.48;;;5.60;99.90;;;;;;5021985;28;20041;-67
2022/01/26 16:07:28;;;;;;;41.03;21.00;;;5.60;99.90;;;;;;5012360;28;20189;-66
2022/01/26 16:12:55;;;;;;;43.15;20.92;;;5.70;99.90;;;;;;5040653;28;20088;-66
2022/01/26 17:26:43;;;;;;;36.53;17.30;;;5.90;99.90;;;;;;5054444;28;20091;-66
2022/01/26 17:48:37;;;;;;;31.88;16.63;;;5.90;99.90;;;;;;5054137;28;20117;-66
2022/01/26 18:17:58;;;;;;;33.72;15.80;;;6.10;99.90;;;;;;5054833;28;20131;-67
2022/01/26 18:50:18;;;;;;;40.03;18.33;;;6.20;99.90;;;;;;5034486;28;20048;-68
2022/01/26 18:52:44;;;;;;;36.08;17.83;;;6.10;99.90;;;;;;5051236;28;20052;-68
2022/01/26 18:55:13;;;;;;;36.67;18.48;;;6.10;99.90;;;;;;5050915;28;20060;-67
2022/01/26 18:57:40;;;;;;;40.00;17.58;;;6.10;99.90;;;;;;5034396;28;20075;-69
2022/01/26 19:00:06;;;;;;;38.60;15.98;;;6.10;99.90;;;;;;5034604;28;20398;-67
2022/01/26 19:02:32;;;;;;;39.88;17.38;;;6.10;99.90;;;;;;5034337;28;20052;-67
2022/01/26 19:04:58;;;;;;;42.55;16.55;;;6.10;99.90;;;;;;5034170;28;20041;-68
2022/01/26 19:07:25;;;;;;;35.30;17.58;;;6.10;99.90;;;;;;5048865;28;20041;-67
2022/01/26 19:09:52;;;;;;;41.95;17.65;;;6.10;99.90;;;;;;5034255;28;20052;-68
2022/01/26 19:12:19;;;;;;;39.03;16.38;;;6.10;99.90;;;;;;5034158;28;20041;-68
2022/01/26 19:14:55;;;;;;;37.95;17.70;;;6.10;99.90;;;;;;5018035;28;20033;-67
2022/01/26 19:17:30;;;;;;;33.85;16.90;;;6.10;99.90;;;;;;5034409;28;20082;-68
2022/01/26 19:23:01;;;;;;;33.15;13.85;;;6.10;99.90;;;;;;5047461;28;20059;-68
2022/01/26 19:25:37;;;;;;;34.20;15.95;;;6.20;99.90;;;;;;5057508;28;20048;-68
2022/01/26 19:31:26;;;;;;;32.90;15.93;;;6.10;99.90;;;;;;5057447;28;20044;-68
2022/01/26 19:43:56;;;;;;;44.00;21.13;;;6.00;99.90;;;;;;5077606;28;20101;-66
2022/01/26 19:46:30;;;;;;;35.50;20.15;;;6.00;99.90;;;;;;5077411;28;20449;-67
2022/01/26 19:52:02;;;;;;;47.63;21.20;;;6.00;99.90;;;;;;5077180;28;20036;-67
2022/01/26 19:54:26;;;;;;;47.85;24.00;;;5.90;99.90;;;;;;5076656;28;20131;-67